Time;durP1;ratioP1;P1;durP2;ratioP2;P2;SDS_P1;SDS_P2;PMS_P1;PMS_P2;Temp;Humidity;BMP_temperature;BMP_pressure;BME280_temperature;BME280_humidity;BME280_pressure;Samples;Min_cycle;Max_cycle;Signal;HPM_P1;HPM_P2
2022/03/17 00:02:19;;;;;;;93.88;43.53;;;;;;;11.27;59.19;100552.00;4988072;28;20046;-82
2022/03/17 00:04:46;;;;;;;85.25;39.33;;;;;;;11.25;59.31;100540.63;4988088;28;20057;-82
2022/03/17 00:07:13;;;;;;;90.95;42.38;;;;;;;11.26;59.42;100547.63;4974096;28;20041;-82
2022/03/17 00:09:39;;;;;;;93.85;42.17;;;;;;;11.28;59.41;100532.41;4981530;28;20505;-82
2022/03/17 00:12:08;;;;;;;91.80;42.45;;;;;;;11.27;59.14;100530.72;4987650;28;20436;-82
2022/03/17 00:14:36;;;;;;;89.55;43.55;;;;;;;11.28;58.76;100535.06;4983071;28;20049;-82
2022/03/17 00:17:03;;;;;;;88.25;42.60;;;;;;;11.26;59.19;100525.50;4984961;28;20053;-82
2022/03/17 00:19:30;;;;;;;94.00;43.42;;;;;;;11.22;59.20;100527.59;5002126;28;20712;-82
2022/03/17 00:21:57;;;;;;;91.18;41.83;;;;;;;11.22;59.02;100527.59;5002289;28;20065;-82
2022/03/17 00:24:24;;;;;;;83.82;39.28;;;;;;;11.21;59.24;100533.00;4967771;28;20042;-82
2022/03/17 00:26:51;;;;;;;92.55;42.45;;;;;;;11.22;59.19;100542.66;4985910;28;20046;-82
2022/03/17 00:29:19;;;;;;;92.32;43.13;;;;;;;11.18;59.52;100536.75;4950407;28;20468;-82
2022/03/17 00:31:45;;;;;;;90.25;43.85;;;;;;;11.19;59.39;100542.91;4967494;28;20050;-82
2022/03/17 00:34:12;;;;;;;88.35;42.22;;;;;;;11.20;59.41;100534.00;4976966;28;20045;-82
2022/03/17 00:36:39;;;;;;;97.47;44.78;;;;;;;11.16;59.22;100532.53;4948673;28;20042;-82
2022/03/17 00:39:08;;;;;;;89.90;43.15;;;;;;;11.16;59.24;100538.69;4964662;28;20050;-82
2022/03/17 00:41:35;;;;;;;88.93;43.35;;;;;;;11.17;59.33;100535.09;4960891;28;20069;-82
2022/03/17 00:44:03;;;;;;;93.68;41.20;;;;;;;11.16;59.09;100538.69;4990992;28;20076;-82
2022/03/17 00:46:30;;;;;;;97.82;43.47;;;;;;;11.16;59.04;100540.50;4997896;28;20100;-82
2022/03/17 00:48:57;;;;;;;87.65;42.25;;;;;;;11.11;59.19;100538.22;4992287;28;20053;-82
2022/03/17 00:51:23;;;;;;;91.45;40.00;;;;;;;11.10;59.43;100528.56;4993002;28;20128;-82
2022/03/17 00:53:50;;;;;;;87.88;42.88;;;;;;;11.12;59.44;100537.25;5002285;28;20042;-82
2022/03/17 00:56:17;;;;;;;93.68;42.67;;;;;;;11.12;59.30;100536.41;4983851;28;20515;-82
2022/03/17 00:58:46;;;;;;;95.85;44.67;;;;;;;11.15;59.23;100536.19;4996425;28;20073;-82
2022/03/17 01:01:14;;;;;;;96.75;43.60;;;;;;;11.11;59.59;100543.53;4983035;28;20493;-82
2022/03/17 01:03:43;;;;;;;98.63;44.00;;;;;;;11.12;59.47;100533.72;4987665;28;20053;-82
2022/03/17 01:06:10;;;;;;;87.63;41.58;;;;;;;11.12;59.37;100541.72;4993370;28;20042;-82
2022/03/17 01:08:37;;;;;;;93.32;42.08;;;;;;;11.10;59.32;100551.66;4984391;28;20075;-82
2022/03/17 01:11:06;;;;;;;95.10;45.17;;;;;;;11.08;59.45;100552.59;4987958;28;20358;-82
2022/03/17 01:13:33;;;;;;;95.65;43.67;;;;;;;11.08;59.09;100543.78;4985871;28;20048;-82
2022/03/17 01:16:00;;;;;;;97.40;42.95;;;;;;;11.08;59.15;100546.44;4975090;28;20066;-81
2022/03/17 01:18:26;;;;;;;94.85;44.33;;;;;;;11.10;59.17;100549.81;4997311;28;20485;-82
2022/03/17 01:20:53;;;;;;;96.25;44.60;;;;;;;11.06;59.15;100543.88;4963679;28;20038;-82
2022/03/17 01:23:20;;;;;;;97.65;43.55;;;;;;;11.07;58.97;100555.38;4977011;28;20042;-82
2022/03/17 01:25:47;;;;;;;96.38;44.70;;;;;;;11.08;58.97;100549.94;4967372;28;20052;-82
2022/03/17 01:28:14;;;;;;;100.70;46.08;;;;;;;11.08;58.81;100544.63;4965707;28;20049;-82
2022/03/17 01:30:40;;;;;;;91.15;42.40;;;;;;;11.04;58.90;100544.97;4951712;28;20062;-82
2022/03/17 01:33:07;;;;;;;99.97;44.75;;;;;;;11.04;58.89;100543.19;4992268;28;20042;-82
2022/03/17 01:35:34;;;;;;;96.60;44.40;;;;;;;10.99;58.79;100542.72;4984500;28;20544;-82
2022/03/17 01:38:01;;;;;;;92.13;43.00;;;;;;;11.04;58.82;100550.28;4997157;28;20133;-82
2022/03/17 01:40:27;;;;;;;98.38;43.53;;;;;;;11.00;58.85;100546.22;4985852;28;20053;-81
2022/03/17 01:42:54;;;;;;;95.03;42.78;;;;;;;10.99;58.58;100537.38;4971974;28;20147;-82
2022/03/17 01:45:21;;;;;;;90.07;40.53;;;;;;;10.99;58.77;100540.06;4965879;28;20047;-82
2022/03/17 01:47:48;;;;;;;91.78;42.15;;;;;;;11.00;58.43;100535.56;4976638;28;20096;-82
2022/03/17 01:50:16;;;;;;;88.30;41.05;;;;;;;10.98;58.49;100543.66;4955935;28;20057;-82
2022/03/17 01:52:44;;;;;;;93.75;42.63;;;;;;;10.98;58.61;100540.16;4984248;28;20121;-82
2022/03/17 01:55:12;;;;;;;91.40;42.63;;;;;;;10.94;58.68;100536.91;5001261;28;25154;-82
2022/03/17 01:57:40;;;;;;;91.38;41.88;;;;;;;10.94;58.12;100539.56;4970542;28;20799;-81
2022/03/17 02:00:11;;;;;;;94.97;42.63;;;;;;;10.83;58.37;100539.53;4976828;28;20043;-82
2022/03/17 02:02:42;;;;;;;95.55;41.83;;;;;;;10.88;58.41;100537.38;4979477;28;20077;-82
2022/03/17 02:05:11;;;;;;;94.07;42.47;;;;;;;10.86;58.08;100537.50;4967111;28;20042;-82
2022/03/17 02:07:40;;;;;;;90.22;42.00;;;;;;;10.86;58.43;100536.63;4977380;28;20402;-82
2022/03/17 02:10:08;;;;;;;99.63;41.25;;;;;;;10.89;58.30;100535.56;4969834;28;20049;-81
2022/03/17 02:15:20;;;;;;;84.53;39.92;;;;;;;10.85;58.41;100534.97;4982456;28;20042;-82
2022/03/17 02:17:47;;;;;;;92.78;39.78;;;;;;;10.85;58.20;100530.50;4979499;28;20358;-81
2022/03/17 02:20:15;;;;;;;82.88;39.35;;;;;;;10.89;58.22;100538.22;4995092;28;20592;-82
2022/03/17 02:22:47;;;;;;;86.97;40.35;;;;;;;10.87;58.24;100538.34;4973800;28;20054;-82
2022/03/17 02:25:34;;;;;;;84.57;38.75;;;;;;;10.84;58.10;100538.59;5002135;28;20107;-81
2022/03/17 02:28:03;;;;;;;83.72;37.72;;;;;;;10.86;58.10;100537.50;4959673;28;20405;-82
2022/03/17 02:30:31;;;;;;;92.30;40.47;;;;;;;10.89;57.84;100532.91;4990816;28;20390;-82
2022/03/17 02:33:00;;;;;;;82.18;38.35;;;;;;;10.88;57.78;100537.38;4952960;28;20070;-82
2022/03/17 02:35:28;;;;;;;91.65;40.85;;;;;;;10.87;57.65;100533.03;4999404;28;22763;-81
2022/03/17 02:37:55;;;;;;;88.25;40.03;;;;;;;10.89;57.51;100540.88;5006072;28;20090;-81
2022/03/17 02:40:22;;;;;;;86.10;39.53;;;;;;;10.85;57.30;100532.31;4983607;28;20069;-82
2022/03/17 02:42:50;;;;;;;83.90;39.60;;;;;;;10.79;57.52;100533.63;5005492;28;20096;-81
2022/03/17 02:45:18;;;;;;;81.35;38.45;;;;;;;10.76;57.47;100541.84;4985878;28;20056;-82
2022/03/17 02:47:45;;;;;;;86.90;39.63;;;;;;;10.68;57.55;100541.59;4992681;28;20053;-82
2022/03/17 02:50:12;;;;;;;80.47;37.28;;;;;;;10.70;57.29;100541.47;4997244;28;20402;-81
2022/03/17 02:52:39;;;;;;;91.15;40.97;;;;;;;10.77;57.10;100540.03;4982555;28;20057;-82
2022/03/17 02:55:08;;;;;;;83.88;39.03;;;;;;;10.65;57.23;100542.66;4998677;28;20048;-82
2022/03/17 02:57:36;;;;;;;92.90;39.33;;;;;;;10.64;57.28;100540.16;4968066;28;20060;-82
2022/03/17 03:00:06;;;;;;;88.50;40.58;;;;;;;10.61;57.28;100545.69;4980981;28;20064;-82
2022/03/17 03:02:33;;;;;;;84.97;38.40;;;;;;;10.61;57.15;100546.53;5006376;28;20069;-82
2022/03/17 03:05:00;;;;;;;86.50;39.70;;;;;;;10.78;56.44;100550.53;4979400;28;20050;-82
2022/03/17 03:07:27;;;;;;;88.35;39.03;;;;;;;10.60;56.90;100544.00;4975320;28;20126;-82
2022/03/17 03:09:55;;;;;;;86.25;38.47;;;;;;;10.60;57.11;100546.66;4998319;28;20049;-81
2022/03/17 03:12:22;;;;;;;86.00;40.03;;;;;;;10.61;57.17;100549.19;4974542;28;20060;-81
2022/03/17 03:14:49;;;;;;;85.38;38.53;;;;;;;10.62;57.48;100552.69;4988912;28;20096;-82
2022/03/17 03:17:16;;;;;;;90.75;40.17;;;;;;;10.63;57.34;100552.59;4955960;28;20099;-82
2022/03/17 03:19:43;;;;;;;86.88;38.42;;;;;;;10.64;57.25;100556.91;4974123;28;20082;-82
2022/03/17 03:22:11;;;;;;;81.22;37.20;;;;;;;10.62;57.38;100561.50;4983029;28;20038;-81
2022/03/17 03:24:38;;;;;;;88.70;38.78;;;;;;;10.60;57.21;100565.25;4969701;28;20054;-81
2022/03/17 03:27:05;;;;;;;85.88;39.08;;;;;;;10.62;57.26;100564.16;4998351;28;20049;-82
2022/03/17 03:29:31;;;;;;;88.40;39.85;;;;;;;10.61;57.11;100561.63;4972190;28;20141;-82
2022/03/17 03:32:00;;;;;;;80.53;37.28;;;;;;;10.62;57.00;100569.47;4979109;28;20088;-81
2022/03/17 03:34:28;;;;;;;91.95;40.42;;;;;;;10.61;57.09;100566.94;4973532;28;20047;-82
2022/03/17 03:39:41;;;;;;;80.68;37.22;;;;;;;10.61;57.18;100570.44;5008105;28;20095;-82
2022/03/17 03:42:08;;;;;;;85.90;39.28;;;;;;;10.51;57.33;100571.28;4997902;28;20045;-82
2022/03/17 03:44:36;;;;;;;88.93;37.53;;;;;;;10.58;57.31;100576.00;4957290;28;20470;-82
2022/03/17 03:47:04;;;;;;;92.10;39.65;;;;;;;10.50;57.28;100575.72;4969525;28;20046;-82
2022/03/17 03:49:32;;;;;;;81.10;36.78;;;;;;;10.56;57.08;100577.91;4995131;28;20046;-81
2022/03/17 03:51:58;;;;;;;81.75;37.83;;;;;;;10.57;57.11;100576.94;4950634;28;20038;-82
2022/03/17 03:54:25;;;;;;;84.05;37.63;;;;;;;10.57;56.88;100584.91;4973376;28;20068;-81
2022/03/17 03:56:55;;;;;;;85.70;37.42;;;;;;;10.55;57.04;100584.19;4976537;28;20409;-82
2022/03/17 03:59:24;;;;;;;81.32;37.63;;;;;;;10.56;56.94;100593.84;4954726;28;20087;-81
2022/03/17 04:01:53;;;;;;;85.20;36.92;;;;;;;10.55;56.87;100586.84;4968123;28;20069;-81
2022/03/17 04:04:21;;;;;;;81.90;36.20;;;;;;;10.56;56.44;100585.88;4958468;28;20038;-82
2022/03/17 04:06:49;;;;;;;79.60;36.17;;;;;;;10.55;56.69;100597.44;4995812;28;20041;-81
2022/03/17 04:09:18;;;;;;;77.32;34.72;;;;;;;10.54;56.72;100586.97;4963959;28;20057;-81
2022/03/17 04:11:45;;;;;;;86.88;37.05;;;;;;;10.54;56.76;100587.81;4982723;28;20049;-82
2022/03/17 04:14:14;;;;;;;81.82;35.50;;;;;;;10.53;56.45;100588.78;4985426;28;20076;-82
2022/03/17 04:16:41;;;;;;;78.38;36.47;;;;;;;10.50;56.69;100591.66;4984389;28;20061;-83
2022/03/17 04:19:11;;;;;;;86.18;36.17;;;;;;;10.41;56.88;100595.84;4987199;28;20042;-82
2022/03/17 04:21:38;;;;;;;82.38;36.30;;;;;;;10.44;56.87;100589.47;4979244;28;20053;-83
2022/03/17 04:24:05;;;;;;;80.10;35.97;;;;;;;10.46;56.89;100584.91;4965518;28;20544;-83
2022/03/17 04:26:32;;;;;;;83.88;37.05;;;;;;;10.47;57.14;100588.38;4984241;28;20061;-83
2022/03/17 04:28:59;;;;;;;82.18;35.85;;;;;;;10.49;56.78;100592.63;4984180;28;20138;-83
2022/03/17 04:31:25;;;;;;;78.22;35.45;;;;;;;10.50;56.89;100599.63;4969332;28;20762;-82
2022/03/17 04:33:52;;;;;;;78.43;35.22;;;;;;;10.50;56.70;100596.13;4993186;28;20415;-83
2022/03/17 04:36:19;;;;;;;81.30;35.75;;;;;;;10.48;56.92;100600.69;4961111;28;20056;-83
2022/03/17 04:38:46;;;;;;;82.78;37.72;;;;;;;10.50;56.84;100607.56;4986681;28;20397;-83
2022/03/17 04:41:14;;;;;;;79.10;34.30;;;;;;;10.51;56.56;100613.75;4984446;28;20084;-83
2022/03/17 04:43:41;;;;;;;81.05;35.45;;;;;;;10.51;56.65;100616.41;4979749;28;20050;-82
2022/03/17 04:46:08;;;;;;;79.57;34.63;;;;;;;10.52;56.24;100612.78;4985152;28;20049;-83
2022/03/17 04:48:35;;;;;;;78.80;34.38;;;;;;;10.53;56.41;100618.00;4968269;28;20068;-82
2022/03/17 04:51:02;;;;;;;74.05;35.13;;;;;;;10.52;56.52;100626.06;4961564;28;20121;-82
2022/03/17 04:53:32;;;;;;;80.03;33.47;;;;;;;10.51;56.87;100627.88;5002058;28;20045;-83
2022/03/17 04:56:00;;;;;;;74.95;34.22;;;;;;;10.52;56.88;100631.38;4996748;28;20045;-83
2022/03/17 04:58:28;;;;;;;77.22;34.80;;;;;;;10.51;56.80;100625.22;4988021;28;20043;-83
2022/03/17 05:00:57;;;;;;;70.72;31.90;;;;;;;10.53;56.93;100622.44;4996815;28;20056;-83
2022/03/17 05:03:24;;;;;;;80.60;35.58;;;;;;;10.52;57.04;100624.25;4982954;28;20046;-82
2022/03/17 05:05:51;;;;;;;76.47;35.78;;;;;;;10.54;56.85;100634.75;4984399;28;20057;-79
2022/03/17 05:08:18;;;;;;;64.47;29.63;;;;;;;10.54;56.69;100634.75;4989125;28;20385;-79
2022/03/17 05:10:47;;;;;;;74.75;34.97;;;;;;;10.51;56.72;100627.88;5010583;28;20048;-79
2022/03/17 05:13:16;;;;;;;76.00;35.50;;;;;;;10.51;56.55;100624.38;4980417;28;20057;-79
2022/03/17 05:15:44;;;;;;;80.03;36.63;;;;;;;10.52;56.32;100639.34;4993574;28;20578;-79
2022/03/17 05:18:12;;;;;;;79.18;35.92;;;;;;;10.50;56.32;100633.28;4992630;28;20041;-79
2022/03/17 05:20:43;;;;;;;75.80;34.85;;;;;;;10.49;56.54;100631.63;4981502;28;20057;-80
2022/03/17 05:23:11;;;;;;;75.38;35.45;;;;;;;10.50;56.37;100630.63;5008063;28;20042;-79
2022/03/17 05:25:39;;;;;;;79.60;35.47;;;;;;;10.49;56.37;100637.75;4975497;28;20069;-79
2022/03/17 05:28:08;;;;;;;85.38;36.50;;;;;;;10.51;56.28;100640.31;4990679;28;20046;-78
2022/03/17 05:30:39;;;;;;;79.90;37.83;;;;;;;10.51;56.31;100642.97;5002440;28;20065;-79
2022/03/17 05:33:07;;;;;;;78.70;35.05;;;;;;;10.52;56.36;100647.31;4988822;28;20081;-78
2022/03/17 05:35:34;;;;;;;78.38;36.55;;;;;;;10.51;56.46;100661.56;5008688;28;20405;-78
2022/03/17 05:38:02;;;;;;;84.90;37.85;;;;;;;10.50;56.68;100666.00;5005124;28;20092;-82
2022/03/17 05:40:30;;;;;;;88.97;36.10;;;;;;;10.50;56.51;100666.00;5001296;28;20547;-78
2022/03/17 05:43:01;;;;;;;76.95;34.85;;;;;;;10.48;55.97;100667.94;4983594;28;20037;-78
2022/03/17 05:45:30;;;;;;;76.85;35.83;;;;;;;10.49;56.06;100672.28;4978369;28;20057;-79
2022/03/17 05:48:00;;;;;;;82.13;35.58;;;;;;;10.48;56.16;100667.06;5007368;28;20049;-78
2022/03/17 05:50:30;;;;;;;68.47;30.58;;;;;;;10.48;56.70;100669.72;4991424;28;20049;-78
2022/03/17 05:52:57;;;;;;;82.05;37.05;;;;;;;10.45;56.49;100676.13;4984589;28;20042;-79
2022/03/17 05:55:26;;;;;;;75.57;35.10;;;;;;;10.46;56.05;100676.97;4979876;28;20101;-79
2022/03/17 05:57:57;;;;;;;78.03;35.28;;;;;;;10.44;56.25;100671.78;4972465;28;20399;-79
2022/03/17 06:00:26;;;;;;;79.03;36.17;;;;;;;10.45;56.49;100676.13;4966757;28;20046;-79
2022/03/17 06:02:54;;;;;;;77.72;36.38;;;;;;;10.46;56.24;100676.97;4978023;28;20060;-79
2022/03/17 06:05:21;;;;;;;79.65;35.75;;;;;;;10.46;56.09;100690.22;4991644;28;20052;-78
2022/03/17 06:07:50;;;;;;;75.32;35.38;;;;;;;10.45;56.49;100689.41;4951205;28;20050;-78
2022/03/17 06:10:27;;;;;;;77.53;35.13;;;;;;;10.36;56.26;100693.59;4983811;28;20076;-79
2022/03/17 06:12:55;;;;;;;78.95;36.22;;;;;;;10.44;56.50;100693.03;4964450;28;20043;-78
2022/03/17 06:15:23;;;;;;;71.32;33.85;;;;;;;10.45;56.91;100694.69;4979846;28;20069;-79
2022/03/17 06:17:56;;;;;;;83.85;38.30;;;;;;;10.41;56.71;100709.19;4962795;28;20046;-78
2022/03/17 06:20:26;;;;;;;79.40;35.60;;;;;;;10.44;56.31;100703.66;4997154;28;20204;-79
2022/03/17 06:22:54;;;;;;;84.03;36.50;;;;;;;10.43;56.44;100715.22;4980313;28;20103;-79
2022/03/17 06:25:27;;;;;;;81.97;35.85;;;;;;;10.38;56.50;100710.25;5012425;28;20092;-79
2022/03/17 06:27:55;;;;;;;85.93;37.90;;;;;;;10.39;56.66;100714.59;5006549;28;20049;-78
2022/03/17 06:30:24;;;;;;;81.15;36.15;;;;;;;10.41;56.45;100719.81;5020559;28;20092;-78
2022/03/17 06:32:51;;;;;;;86.03;37.67;;;;;;;10.43;56.44;100715.22;4984785;28;20049;-78
2022/03/17 06:35:22;;;;;;;90.53;38.17;;;;;;;10.43;56.26;100718.72;5011947;28;20105;-78
2022/03/17 06:37:52;;;;;;;82.30;39.03;;;;;;;10.42;56.26;100726.78;5011508;28;20046;-82
2022/03/17 06:40:20;;;;;;;81.43;37.80;;;;;;;10.41;56.31;100731.28;5004018;28;20049;-82
2022/03/17 06:42:48;;;;;;;80.85;37.88;;;;;;;10.42;56.43;100727.63;4997505;28;20042;-78
2022/03/17 06:45:16;;;;;;;79.13;36.38;;;;;;;10.43;56.53;100732.00;4997209;28;20048;-78
2022/03/17 06:47:43;;;;;;;82.35;37.75;;;;;;;10.43;56.53;100734.66;5005315;28;20049;-79
2022/03/17 06:50:12;;;;;;;82.68;37.42;;;;;;;10.43;56.46;100736.44;4974401;28;20167;-78
2022/03/17 06:52:39;;;;;;;82.82;38.35;;;;;;;10.44;56.89;100738.16;4980174;28;20050;-78
2022/03/17 06:55:06;;;;;;;85.38;37.97;;;;;;;10.46;56.75;100735.38;4966327;28;20049;-78
2022/03/17 06:57:33;;;;;;;87.18;38.78;;;;;;;10.46;56.52;100732.72;4968453;28;20046;-78
2022/03/17 07:00:19;;;;;;;86.18;38.28;;;;;;;10.46;56.59;100736.25;4992451;28;20092;-78
2022/03/17 07:02:47;;;;;;;89.65;38.53;;;;;;;10.45;56.78;100733.69;5000559;28;20041;-78
2022/03/17 07:05:14;;;;;;;88.25;40.72;;;;;;;10.47;56.40;100729.97;4968605;28;20042;-79
2022/03/17 07:07:43;;;;;;;81.75;37.00;;;;;;;10.42;56.72;100730.28;5010386;28;20494;-78
2022/03/17 07:10:11;;;;;;;90.03;40.30;;;;;;;10.43;56.76;100732.00;5014128;28;20103;-78
2022/03/17 07:12:38;;;;;;;86.43;38.85;;;;;;;10.42;56.92;100732.09;4978978;28;20405;-78
2022/03/17 07:15:05;;;;;;;88.35;39.38;;;;;;;10.43;57.22;100729.34;4994676;28;20100;-78
2022/03/17 07:17:39;;;;;;;81.60;37.65;;;;;;;10.42;56.89;100746.22;4977195;28;20061;-78
2022/03/17 07:20:08;;;;;;;85.95;39.05;;;;;;;10.45;57.00;100745.16;4995715;28;20049;-79
2022/03/17 07:22:36;;;;;;;88.05;38.60;;;;;;;10.47;56.84;100753.03;5015894;28;20085;-81
2022/03/17 07:25:05;;;;;;;87.97;40.33;;;;;;;10.45;56.96;100760.25;4985283;28;20046;-77
2022/03/17 07:27:34;;;;;;;105.70;42.17;;;;;;;10.46;57.08;100775.19;4999000;28;20042;-77
2022/03/17 07:30:02;;;;;;;87.65;39.97;;;;;;;10.47;57.20;100772.44;4995768;28;20125;-77
2022/03/17 07:32:34;;;;;;;83.68;37.22;;;;;;;10.47;57.13;100774.25;4994497;28;20144;-77
2022/03/17 07:35:01;;;;;;;92.90;40.05;;;;;;;10.47;56.97;100775.09;4978019;28;20077;-77
2022/03/17 07:37:27;;;;;;;97.57;42.35;;;;;;;10.48;56.93;100784.78;5010768;28;20045;-77
2022/03/17 07:39:54;;;;;;;86.78;39.33;;;;;;;10.48;57.03;100787.44;4966770;28;20494;-79
2022/03/17 07:42:21;;;;;;;87.15;39.65;;;;;;;10.50;57.34;100797.94;4990020;28;20683;-79
2022/03/17 07:45:11;;;;;;;86.05;40.17;;;;;;;10.48;57.35;100802.50;4961431;28;20103;-80
2022/03/17 07:47:56;;;;;;;98.88;40.85;;;;;;;10.45;57.64;100800.91;5018017;28;20037;-79
2022/03/17 07:50:23;;;;;;;86.95;39.72;;;;;;;10.49;57.15;100806.88;4994185;28;20100;-79
2022/03/17 07:52:50;;;;;;;92.93;39.92;;;;;;;10.50;57.12;100805.91;4990002;28;20061;-80
2022/03/17 07:55:18;;;;;;;88.15;39.95;;;;;;;10.51;57.07;100808.47;4991874;28;20065;-80
2022/03/17 07:57:45;;;;;;;93.93;40.92;;;;;;;10.51;57.15;100816.41;4981710;28;20045;-81
2022/03/17 08:00:12;;;;;;;94.85;42.13;;;;;;;10.52;57.02;100809.28;4997913;28;20056;-80
2022/03/17 08:02:43;;;;;;;93.93;41.60;;;;;;;10.47;57.33;100814.09;5005571;28;20072;-80
2022/03/17 08:05:11;;;;;;;99.82;43.17;;;;;;;10.49;57.27;100821.00;5012371;28;21562;-80
2022/03/17 08:07:38;;;;;;;103.07;40.97;;;;;;;10.49;57.46;100814.84;4968211;28;20144;-80
2022/03/17 08:10:06;;;;;;;85.05;39.50;;;;;;;10.44;57.65;100817.81;4987812;28;20050;-80
2022/03/17 08:12:34;;;;;;;96.93;40.60;;;;;;;10.43;57.84;100819.63;4968038;28;20045;-81
2022/03/17 08:15:02;;;;;;;88.50;39.80;;;;;;;10.43;58.11;100826.72;5015004;28;20044;-78
2022/03/17 08:17:29;;;;;;;91.65;40.03;;;;;;;10.46;58.14;100823.88;5007116;28;20041;-78
2022/03/17 08:19:57;;;;;;;93.13;40.80;;;;;;;10.50;58.41;100829.81;4996348;28;20045;-77
2022/03/17 08:22:25;;;;;;;93.60;41.50;;;;;;;10.50;57.79;100833.28;4995892;28;20053;-77
2022/03/17 08:24:54;;;;;;;98.47;42.00;;;;;;;10.48;57.70;100827.28;4993410;28;20049;-77
2022/03/17 08:27:21;;;;;;;87.57;40.00;;;;;;;10.45;57.85;100845.22;4952478;28;20050;-78
2022/03/17 08:29:48;;;;;;;91.25;40.72;;;;;;;10.49;58.05;100846.69;4975627;28;20049;-77
2022/03/17 08:32:15;;;;;;;87.18;39.80;;;;;;;10.50;57.70;100840.41;4986659;28;20100;-78
2022/03/17 08:34:42;;;;;;;87.90;39.72;;;;;;;10.52;57.67;100835.84;4976685;28;20053;-77
2022/03/17 08:37:09;;;;;;;94.25;41.88;;;;;;;10.55;57.50;100840.94;4974277;28;20119;-78
2022/03/17 08:39:36;;;;;;;101.25;42.58;;;;;;;10.55;57.18;100846.25;4983478;28;20045;-77
2022/03/17 08:42:03;;;;;;;94.00;41.97;;;;;;;10.56;57.47;100843.50;4997235;28;20516;-77
2022/03/17 08:44:30;;;;;;;96.78;43.13;;;;;;;10.58;57.54;100841.59;5009674;28;20083;-77
2022/03/17 08:49:44;;;;;;;93.75;40.65;;;;;;;10.58;57.50;100844.25;4986150;28;20780;-80
2022/03/17 08:52:10;;;;;;;93.35;41.85;;;;;;;10.60;57.59;100847.59;4999497;28;20045;-80
2022/03/17 08:54:38;;;;;;;100.30;42.58;;;;;;;10.62;57.59;100850.16;4988275;28;20046;-80
2022/03/17 08:57:05;;;;;;;101.72;43.35;;;;;;;10.64;57.30;100848.25;4994874;28;20053;-80
2022/03/17 08:59:34;;;;;;;99.72;41.70;;;;;;;10.66;57.56;100849.00;5000063;28;20602;-80
2022/03/17 09:02:10;;;;;;;86.60;40.25;;;;;;;10.66;57.68;100851.66;4977509;28;20145;-78
2022/03/17 09:04:37;;;;;;;97.53;42.03;;;;;;;10.67;57.51;100853.34;4964721;28;20141;-78
2022/03/17 09:07:05;;;;;;;95.53;41.08;;;;;;;10.68;57.58;100857.66;4976354;28;20041;-77
2022/03/17 09:09:33;;;;;;;94.97;42.22;;;;;;;10.69;57.95;100858.53;4967573;28;20094;-77
2022/03/17 09:12:06;;;;;;;89.57;40.45;;;;;;;10.67;57.50;100861.31;4976226;28;21263;-78
2022/03/17 09:14:37;;;;;;;92.75;40.20;;;;;;;10.70;57.88;100861.06;4990635;28;20046;-78
2022/03/17 09:17:04;;;;;;;88.82;41.10;;;;;;;10.73;57.81;100866.16;5010079;28;20042;-78
2022/03/17 09:19:32;;;;;;;85.38;37.65;;;;;;;10.75;57.76;100869.56;4992106;28;20442;-78
2022/03/17 09:22:00;;;;;;;96.43;44.42;;;;;;;10.76;57.60;100873.94;4981867;28;20046;-77
2022/03/17 09:24:30;;;;;;;96.28;43.15;;;;;;;10.80;57.40;100871.88;5008705;28;20060;-77
2022/03/17 09:26:58;;;;;;;98.82;42.78;;;;;;;10.78;57.52;100871.97;4958470;28;20065;-77
2022/03/17 09:29:28;;;;;;;93.03;42.05;;;;;;;10.82;57.62;100875.28;4968272;28;20671;-77
2022/03/17 09:31:58;;;;;;;94.75;41.92;;;;;;;10.83;57.36;100871.66;4976977;28;20114;-78
2022/03/17 09:34:24;;;;;;;92.25;41.10;;;;;;;10.83;57.40;100875.16;4989480;28;20053;-77
2022/03/17 09:36:51;;;;;;;92.15;40.72;;;;;;;10.84;57.70;100868.06;4979830;28;20483;-77
2022/03/17 09:42:05;;;;;;;93.53;41.20;;;;;;;10.83;57.60;100872.50;4982600;28;20049;-77
2022/03/17 09:44:32;;;;;;;96.88;41.95;;;;;;;10.86;57.32;100872.31;4985991;28;20050;-78
2022/03/17 09:46:59;;;;;;;98.07;38.95;;;;;;;10.88;57.24;100873.97;4988743;28;20502;-77
2022/03/17 09:49:28;;;;;;;95.55;41.83;;;;;;;10.90;57.20;100869.41;4984653;28;20398;-77
2022/03/17 09:51:57;;;;;;;84.30;38.78;;;;;;;10.86;57.38;100868.78;4969347;28;20049;-81
2022/03/17 09:54:24;;;;;;;93.20;40.67;;;;;;;10.92;57.35;100871.00;4970620;28;20729;-78
2022/03/17 09:56:53;;;;;;;92.78;39.55;;;;;;;10.90;57.33;100880.88;4970284;28;20049;-78
2022/03/17 09:59:20;;;;;;;97.28;41.10;;;;;;;10.93;57.43;100871.84;5012180;28;20060;-78
2022/03/17 10:01:48;;;;;;;97.18;40.30;;;;;;;11.01;56.69;100885.41;4964716;28;20052;-77
2022/03/17 10:04:16;;;;;;;93.05;40.47;;;;;;;10.97;56.73;100890.09;5006668;28;20107;-77
2022/03/17 10:06:43;;;;;;;94.55;41.78;;;;;;;10.93;56.67;100893.09;4998508;28;20050;-76
2022/03/17 10:09:11;;;;;;;89.28;42.30;;;;;;;10.93;57.02;100896.59;5001399;28;20046;-77
2022/03/17 10:11:37;;;;;;;91.10;40.17;;;;;;;10.94;57.10;100903.63;5009937;28;20073;-80
2022/03/17 10:14:05;;;;;;;91.60;40.45;;;;;;;10.91;56.83;100909.13;5017359;28;20386;-77
2022/03/17 10:16:34;;;;;;;94.18;40.95;;;;;;;10.94;56.93;100908.94;4981337;28;20109;-77
2022/03/17 10:19:03;;;;;;;95.25;41.47;;;;;;;10.96;57.00;100909.66;4955601;28;20048;-78
2022/03/17 10:21:31;;;;;;;90.60;42.10;;;;;;;10.97;57.01;100906.06;4988657;28;20050;-77
2022/03/17 10:24:03;;;;;;;88.75;39.90;;;;;;;10.94;56.69;100908.94;4965232;28;20053;-77
2022/03/17 10:26:32;;;;;;;90.75;39.67;;;;;;;10.96;57.19;100914.13;4977675;28;20104;-78
2022/03/17 10:29:05;;;;;;;89.18;40.58;;;;;;;10.97;56.95;100916.69;4997740;28;20041;-78
2022/03/17 10:31:44;;;;;;;91.80;40.22;;;;;;;10.95;57.04;100915.94;4942370;28;20398;-77
2022/03/17 10:34:11;;;;;;;97.63;42.15;;;;;;;10.99;57.30;100917.44;5005880;28;20125;-78
2022/03/17 10:36:40;;;;;;;88.47;40.80;;;;;;;11.03;56.95;100924.19;4984298;28;20049;-77
2022/03/17 10:39:10;;;;;;;94.03;42.40;;;;;;;11.02;56.96;100929.66;4995157;28;20041;-77
2022/03/17 10:41:45;;;;;;;95.28;40.40;;;;;;;10.99;57.14;100930.72;4994186;28;20054;-77
2022/03/17 10:44:15;;;;;;;92.10;40.38;;;;;;;11.06;56.66;100933.75;4998393;28;20051;-78
2022/03/17 10:47:01;;;;;;;94.10;42.22;;;;;;;10.96;56.75;100930.91;4962519;28;20049;-78
2022/03/17 10:49:34;;;;;;;92.47;41.20;;;;;;;11.07;57.04;100935.47;4948864;28;20417;-81
2022/03/17 10:53:02;;;;;;;87.45;39.90;;;;;;;11.08;56.75;100945.13;4896814;28;20403;-79
2022/03/17 10:55:30;;;;;;;88.28;39.00;;;;;;;11.06;57.13;100941.72;4960337;28;20042;-79
2022/03/17 10:58:13;;;;;;;95.28;41.40;;;;;;;11.01;56.96;100943.88;4949625;28;20046;-80
2022/03/17 11:00:51;;;;;;;98.30;41.55;;;;;;;11.05;56.43;100950.69;4962076;28;20629;-79
2022/03/17 11:03:20;;;;;;;90.65;41.47;;;;;;;11.12;56.61;100948.41;4943931;28;20047;-80
2022/03/17 11:05:53;;;;;;;94.57;39.88;;;;;;;11.13;56.77;100953.63;4932437;28;20096;-80
2022/03/17 11:08:20;;;;;;;;;;;;;;;10.91;57.32;100956.97;4964651;28;20053;-80
2022/03/17 11:10:47;;;;;;;93.18;40.05;;;;;;;11.12;57.03;100953.72;4990534;28;19922;-79
2022/03/17 11:13:14;;;;;;;85.00;38.35;;;;;;;11.13;56.94;100952.78;4938759;28;20406;-80
2022/03/17 11:15:48;;;;;;;100.85;40.80;;;;;;;11.14;56.76;100954.47;4950065;28;20050;-80
2022/03/17 11:18:19;;;;;;;96.43;41.05;;;;;;;11.18;56.77;100947.97;4929457;28;20049;-80
2022/03/17 11:20:46;;;;;;;89.47;39.65;;;;;;;11.19;56.96;100954.97;4962784;28;20505;-80
2022/03/17 11:23:22;;;;;;;92.20;41.47;;;;;;;11.14;57.05;100950.00;4982067;28;20489;-79
2022/03/17 11:25:56;;;;;;;95.85;42.38;;;;;;;11.15;56.68;100951.69;4998680;28;20065;-79
2022/03/17 11:28:32;;;;;;;88.97;38.70;;;;;;;11.13;56.72;100950.97;4974197;28;20042;-79